sensor_id;sensor_type;location;lat;lon;timestamp;P1;durP1;ratioP1;P2;durP2;ratioP2
12980;SDS011;6555;50.468;8.480;2022-10-16T00:02:17;1.17;;;1.07;;
12980;SDS011;6555;50.468;8.480;2022-10-16T00:07:21;2.43;;;1.00;;
12980;SDS011;6555;50.468;8.480;2022-10-16T00:12:25;0.93;;;0.87;;
12980;SDS011;6555;50.468;8.480;2022-10-16T00:17:30;1.20;;;0.80;;
12980;SDS011;6555;50.468;8.480;2022-10-16T00:22:34;0.67;;;0.67;;
12980;SDS011;6555;50.468;8.480;2022-10-16T00:27:37;0.50;;;0.50;;
12980;SDS011;6555;50.468;8.480;2022-10-16T00:32:40;0.83;;;0.43;;
12980;SDS011;6555;50.468;8.480;2022-10-16T00:37:44;0.50;;;0.50;;
12980;SDS011;6555;50.468;8.480;2022-10-16T00:42:47;0.40;;;0.40;;
12980;SDS011;6555;50.468;8.480;2022-10-16T00:47:50;0.40;;;0.40;;
12980;SDS011;6555;50.468;8.480;2022-10-16T00:52:57;0.40;;;0.40;;
12980;SDS011;6555;50.468;8.480;2022-10-16T00:58:02;1.70;;;0.73;;
12980;SDS011;6555;50.468;8.480;2022-10-16T01:08:29;1.60;;;0.30;;
12980;SDS011;6555;50.468;8.480;2022-10-16T01:13:42;1.40;;;0.40;;
12980;SDS011;6555;50.468;8.480;2022-10-16T01:18:52;0.60;;;0.57;;
12980;SDS011;6555;50.468;8.480;2022-10-16T01:24:01;0.40;;;0.40;;
12980;SDS011;6555;50.468;8.480;2022-10-16T01:29:13;0.30;;;0.30;;
12980;SDS011;6555;50.468;8.480;2022-10-16T01:34:22;0.20;;;0.20;;
12980;SDS011;6555;50.468;8.480;2022-10-16T01:39:34;0.70;;;0.70;;
12980;SDS011;6555;50.468;8.480;2022-10-16T01:44:42;1.27;;;0.63;;
12980;SDS011;6555;50.468;8.480;2022-10-16T01:49:48;0.63;;;0.63;;
12980;SDS011;6555;50.468;8.480;2022-10-16T01:54:53;1.47;;;1.03;;
12980;SDS011;6555;50.468;8.480;2022-10-16T02:00:01;0.83;;;0.80;;
12980;SDS011;6555;50.468;8.480;2022-10-16T02:05:13;1.03;;;0.93;;
12980;SDS011;6555;50.468;8.480;2022-10-16T02:10:21;0.70;;;0.70;;
12980;SDS011;6555;50.468;8.480;2022-10-16T02:15:26;0.87;;;0.50;;
12980;SDS011;6555;50.468;8.480;2022-10-16T02:20:30;0.73;;;0.40;;
12980;SDS011;6555;50.468;8.480;2022-10-16T02:25:37;1.87;;;1.13;;
12980;SDS011;6555;50.468;8.480;2022-10-16T02:30:46;1.60;;;1.20;;
12980;SDS011;6555;50.468;8.480;2022-10-16T02:35:53;2.90;;;1.50;;
12980;SDS011;6555;50.468;8.480;2022-10-16T02:40:57;2.83;;;1.20;;
12980;SDS011;6555;50.468;8.480;2022-10-16T02:46:01;1.70;;;1.20;;
12980;SDS011;6555;50.468;8.480;2022-10-16T02:51:04;0.67;;;0.67;;
12980;SDS011;6555;50.468;8.480;2022-10-16T02:56:08;0.97;;;0.70;;
12980;SDS011;6555;50.468;8.480;2022-10-16T03:01:12;1.60;;;0.70;;
12980;SDS011;6555;50.468;8.480;2022-10-16T03:06:18;0.93;;;0.30;;
12980;SDS011;6555;50.468;8.480;2022-10-16T03:11:21;0.47;;;0.47;;
12980;SDS011;6555;50.468;8.480;2022-10-16T03:16:25;0.30;;;0.30;;
12980;SDS011;6555;50.468;8.480;2022-10-16T03:21:28;0.57;;;0.57;;
12980;SDS011;6555;50.468;8.480;2022-10-16T03:26:31;0.30;;;0.30;;
12980;SDS011;6555;50.468;8.480;2022-10-16T03:31:35;1.70;;;0.50;;
12980;SDS011;6555;50.468;8.480;2022-10-16T03:36:38;0.47;;;0.30;;
12980;SDS011;6555;50.468;8.480;2022-10-16T03:41:42;0.53;;;0.50;;
12980;SDS011;6555;50.468;8.480;2022-10-16T03:46:47;0.30;;;0.30;;
12980;SDS011;6555;50.468;8.480;2022-10-16T03:51:50;0.13;;;0.13;;
12980;SDS011;6555;50.468;8.480;2022-10-16T03:56:53;0.67;;;0.47;;
12980;SDS011;6555;50.468;8.480;2022-10-16T04:01:57;0.67;;;0.30;;
12980;SDS011;6555;50.468;8.480;2022-10-16T04:07:00;1.43;;;0.30;;
12980;SDS011;6555;50.468;8.480;2022-10-16T04:12:03;0.20;;;0.20;;
12980;SDS011;6555;50.468;8.480;2022-10-16T04:17:07;0.30;;;0.30;;
12980;SDS011;6555;50.468;8.480;2022-10-16T04:22:10;0.20;;;0.20;;
12980;SDS011;6555;50.468;8.480;2022-10-16T04:27:13;0.10;;;0.10;;
12980;SDS011;6555;50.468;8.480;2022-10-16T04:32:17;0.40;;;0.17;;
12980;SDS011;6555;50.468;8.480;2022-10-16T04:37:23;0.67;;;0.30;;
12980;SDS011;6555;50.468;8.480;2022-10-16T04:42:27;0.23;;;0.23;;
12980;SDS011;6555;50.468;8.480;2022-10-16T04:47:32;0.50;;;0.33;;
12980;SDS011;6555;50.468;8.480;2022-10-16T04:52:35;0.50;;;0.40;;
12980;SDS011;6555;50.468;8.480;2022-10-16T04:57:38;1.27;;;0.40;;
12980;SDS011;6555;50.468;8.480;2022-10-16T05:02:42;0.10;;;0.10;;
12980;SDS011;6555;50.468;8.480;2022-10-16T05:07:45;0.20;;;0.13;;
12980;SDS011;6555;50.468;8.480;2022-10-16T05:12:48;0.30;;;0.30;;
12980;SDS011;6555;50.468;8.480;2022-10-16T05:17:54;0.37;;;0.37;;
12980;SDS011;6555;50.468;8.480;2022-10-16T05:22:57;0.80;;;0.80;;
12980;SDS011;6555;50.468;8.480;2022-10-16T05:28:00;0.20;;;0.20;;
12980;SDS011;6555;50.468;8.480;2022-10-16T05:33:05;0.40;;;0.40;;
12980;SDS011;6555;50.468;8.480;2022-10-16T05:38:08;0.80;;;0.50;;
12980;SDS011;6555;50.468;8.480;2022-10-16T05:43:11;0.10;;;0.10;;
12980;SDS011;6555;50.468;8.480;2022-10-16T05:48:15;1.43;;;0.33;;
12980;SDS011;6555;50.468;8.480;2022-10-16T05:53:18;0.30;;;0.30;;
12980;SDS011;6555;50.468;8.480;2022-10-16T05:58:28;0.30;;;0.30;;
12980;SDS011;6555;50.468;8.480;2022-10-16T06:03:33;0.77;;;0.40;;
12980;SDS011;6555;50.468;8.480;2022-10-16T06:08:37;0.30;;;0.30;;
12980;SDS011;6555;50.468;8.480;2022-10-16T06:13:40;0.40;;;0.40;;
12980;SDS011;6555;50.468;8.480;2022-10-16T06:18:45;1.23;;;0.40;;
12980;SDS011;6555;50.468;8.480;2022-10-16T06:23:48;0.50;;;0.50;;
12980;SDS011;6555;50.468;8.480;2022-10-16T06:28:51;0.50;;;0.50;;
12980;SDS011;6555;50.468;8.480;2022-10-16T06:33:57;0.87;;;0.87;;
12980;SDS011;6555;50.468;8.480;2022-10-16T06:39:01;0.70;;;0.70;;
12980;SDS011;6555;50.468;8.480;2022-10-16T06:44:05;0.70;;;0.70;;
12980;SDS011;6555;50.468;8.480;2022-10-16T06:49:10;0.77;;;0.77;;
12980;SDS011;6555;50.468;8.480;2022-10-16T06:54:14;0.60;;;0.60;;
12980;SDS011;6555;50.468;8.480;2022-10-16T06:59:17;1.03;;;0.60;;
12980;SDS011;6555;50.468;8.480;2022-10-16T07:04:22;0.33;;;0.33;;
12980;SDS011;6555;50.468;8.480;2022-10-16T07:09:25;0.40;;;0.40;;
12980;SDS011;6555;50.468;8.480;2022-10-16T07:14:28;0.60;;;0.53;;
12980;SDS011;6555;50.468;8.480;2022-10-16T07:19:32;2.10;;;0.90;;
12980;SDS011;6555;50.468;8.480;2022-10-16T07:24:35;1.40;;;0.87;;
12980;SDS011;6555;50.468;8.480;2022-10-16T07:29:38;0.80;;;0.80;;
12980;SDS011;6555;50.468;8.480;2022-10-16T07:34:43;0.80;;;0.80;;
12980;SDS011;6555;50.468;8.480;2022-10-16T07:39:46;1.23;;;0.70;;
12980;SDS011;6555;50.468;8.480;2022-10-16T07:44:49;0.60;;;0.60;;
12980;SDS011;6555;50.468;8.480;2022-10-16T07:49:54;0.63;;;0.63;;
12980;SDS011;6555;50.468;8.480;2022-10-16T07:54:57;0.80;;;0.80;;
12980;SDS011;6555;50.468;8.480;2022-10-16T08:00:00;0.70;;;0.70;;
12980;SDS011;6555;50.468;8.480;2022-10-16T08:05:13;0.90;;;0.90;;
12980;SDS011;6555;50.468;8.480;2022-10-16T08:10:17;0.90;;;0.83;;
12980;SDS011;6555;50.468;8.480;2022-10-16T08:15:21;1.00;;;0.90;;
12980;SDS011;6555;50.468;8.480;2022-10-16T08:20:25;0.87;;;0.77;;
12980;SDS011;6555;50.468;8.480;2022-10-16T08:25:29;0.60;;;0.60;;
12980;SDS011;6555;50.468;8.480;2022-10-16T08:30:32;0.40;;;0.40;;
12980;SDS011;6555;50.468;8.480;2022-10-16T08:35:36;0.57;;;0.43;;
12980;SDS011;6555;50.468;8.480;2022-10-16T08:40:41;0.90;;;0.30;;
12980;SDS011;6555;50.468;8.480;2022-10-16T08:45:50;0.60;;;0.50;;
12980;SDS011;6555;50.468;8.480;2022-10-16T08:51:07;0.30;;;0.30;;
12980;SDS011;6555;50.468;8.480;2022-10-16T08:56:14;0.57;;;0.57;;
12980;SDS011;6555;50.468;8.480;2022-10-16T09:01:17;1.07;;;0.57;;
12980;SDS011;6555;50.468;8.480;2022-10-16T09:06:37;0.50;;;0.50;;
12980;SDS011;6555;50.468;8.480;2022-10-16T09:11:48;0.70;;;0.60;;
12980;SDS011;6555;50.468;8.480;2022-10-16T09:16:59;0.43;;;0.43;;
12980;SDS011;6555;50.468;8.480;2022-10-16T09:22:11;0.60;;;0.60;;
12980;SDS011;6555;50.468;8.480;2022-10-16T09:27:16;0.57;;;0.50;;
12980;SDS011;6555;50.468;8.480;2022-10-16T09:32:19;0.60;;;0.60;;
12980;SDS011;6555;50.468;8.480;2022-10-16T09:37:25;0.30;;;0.30;;
12980;SDS011;6555;50.468;8.480;2022-10-16T09:42:30;1.00;;;0.60;;
12980;SDS011;6555;50.468;8.480;2022-10-16T09:47:37;0.53;;;0.40;;
12980;SDS011;6555;50.468;8.480;2022-10-16T09:52:45;0.50;;;0.50;;
12980;SDS011;6555;50.468;8.480;2022-10-16T09:57:49;0.50;;;0.50;;
12980;SDS011;6555;50.468;8.480;2022-10-16T10:02:52;1.17;;;0.50;;
12980;SDS011;6555;50.468;8.480;2022-10-16T10:07:57;0.40;;;0.40;;
12980;SDS011;6555;50.468;8.480;2022-10-16T10:13:02;0.50;;;0.50;;
12980;SDS011;6555;50.468;8.480;2022-10-16T10:18:15;0.70;;;0.50;;
12980;SDS011;6555;50.468;8.480;2022-10-16T10:23:22;0.65;;;0.65;;
12980;SDS011;6555;50.468;8.480;2022-10-16T10:28:30;1.55;;;0.40;;
12980;SDS011;6555;50.468;8.480;2022-10-16T10:33:50;0.40;;;0.40;;
12980;SDS011;6555;50.468;8.480;2022-10-16T10:39:02;0.63;;;0.63;;
12980;SDS011;6555;50.468;8.480;2022-10-16T10:44:11;0.40;;;0.40;;
12980;SDS011;6555;50.468;8.480;2022-10-16T10:49:31;1.27;;;0.68;;
12980;SDS011;6555;50.468;8.480;2022-10-16T10:54:49;0.60;;;0.60;;
12980;SDS011;6555;50.468;8.480;2022-10-16T10:59:59;1.23;;;0.75;;
12980;SDS011;6555;50.468;8.480;2022-10-16T11:05:15;1.05;;;0.63;;
12980;SDS011;6555;50.468;8.480;2022-10-16T11:10:35;0.63;;;0.40;;
12980;SDS011;6555;50.468;8.480;2022-10-16T11:15:45;0.38;;;0.38;;
12980;SDS011;6555;50.468;8.480;2022-10-16T11:20:51;0.45;;;0.45;;
12980;SDS011;6555;50.468;8.480;2022-10-16T11:26:00;0.32;;;0.32;;
12980;SDS011;6555;50.468;8.480;2022-10-16T11:31:08;0.30;;;0.30;;
12980;SDS011;6555;50.468;8.480;2022-10-16T11:36:17;0.40;;;0.40;;
12980;SDS011;6555;50.468;8.480;2022-10-16T11:41:28;0.43;;;0.43;;
12980;SDS011;6555;50.468;8.480;2022-10-16T11:46:35;0.40;;;0.40;;
12980;SDS011;6555;50.468;8.480;2022-10-16T11:52:02;0.73;;;0.60;;
12980;SDS011;6555;50.468;8.480;2022-10-16T11:57:13;0.55;;;0.40;;
12980;SDS011;6555;50.468;8.480;2022-10-16T12:02:26;0.20;;;0.20;;
12980;SDS011;6555;50.468;8.480;2022-10-16T12:07:38;2.08;;;0.50;;
12980;SDS011;6555;50.468;8.480;2022-10-16T12:12:50;0.85;;;0.50;;
12980;SDS011;6555;50.468;8.480;2022-10-16T12:17:53;0.20;;;0.20;;
12980;SDS011;6555;50.468;8.480;2022-10-16T12:22:57;0.28;;;0.28;;
12980;SDS011;6555;50.468;8.480;2022-10-16T12:28:05;0.60;;;0.60;;
12980;SDS011;6555;50.468;8.480;2022-10-16T12:33:20;0.25;;;0.20;;
12980;SDS011;6555;50.468;8.480;2022-10-16T12:38:26;0.40;;;0.40;;
12980;SDS011;6555;50.468;8.480;2022-10-16T12:43:40;0.43;;;0.43;;
12980;SDS011;6555;50.468;8.480;2022-10-16T12:48:44;0.50;;;0.35;;
12980;SDS011;6555;50.468;8.480;2022-10-16T12:54:11;0.10;;;0.10;;
12980;SDS011;6555;50.468;8.480;2022-10-16T12:59:21;0.30;;;0.30;;
12980;SDS011;6555;50.468;8.480;2022-10-16T13:04:34;0.30;;;0.28;;
12980;SDS011;6555;50.468;8.480;2022-10-16T13:10:02;0.30;;;0.30;;
12980;SDS011;6555;50.468;8.480;2022-10-16T13:15:19;0.30;;;0.30;;
12980;SDS011;6555;50.468;8.480;2022-10-16T13:20:32;0.28;;;0.25;;
12980;SDS011;6555;50.468;8.480;2022-10-16T13:25:41;0.15;;;0.15;;
12980;SDS011;6555;50.468;8.480;2022-10-16T13:30:52;0.30;;;0.30;;
12980;SDS011;6555;50.468;8.480;2022-10-16T13:35:57;0.30;;;0.30;;
12980;SDS011;6555;50.468;8.480;2022-10-16T13:41:00;0.60;;;0.32;;
12980;SDS011;6555;50.468;8.480;2022-10-16T13:46:11;0.93;;;0.38;;
12980;SDS011;6555;50.468;8.480;2022-10-16T13:51:16;0.22;;;0.22;;
12980;SDS011;6555;50.468;8.480;2022-10-16T13:56:21;0.30;;;0.30;;
12980;SDS011;6555;50.468;8.480;2022-10-16T14:01:28;0.60;;;0.60;;
12980;SDS011;6555;50.468;8.480;2022-10-16T14:06:33;0.50;;;0.50;;
12980;SDS011;6555;50.468;8.480;2022-10-16T14:11:41;0.50;;;0.50;;
12980;SDS011;6555;50.468;8.480;2022-10-16T14:16:51;0.40;;;0.40;;
12980;SDS011;6555;50.468;8.480;2022-10-16T14:21:54;0.75;;;0.75;;
12980;SDS011;6555;50.468;8.480;2022-10-16T14:26:59;0.70;;;0.70;;
12980;SDS011;6555;50.468;8.480;2022-10-16T14:37:26;0.57;;;0.57;;
12980;SDS011;6555;50.468;8.480;2022-10-16T14:42:31;0.68;;;0.68;;
12980;SDS011;6555;50.468;8.480;2022-10-16T14:47:36;0.50;;;0.50;;
12980;SDS011;6555;50.468;8.480;2022-10-16T14:52:49;0.80;;;0.77;;
12980;SDS011;6555;50.468;8.480;2022-10-16T14:57:52;2.28;;;0.70;;
12980;SDS011;6555;50.468;8.480;2022-10-16T15:03:02;0.50;;;0.50;;
12980;SDS011;6555;50.468;8.480;2022-10-16T15:08:05;0.68;;;0.68;;
12980;SDS011;6555;50.468;8.480;2022-10-16T15:13:09;1.52;;;0.60;;
12980;SDS011;6555;50.468;8.480;2022-10-16T15:18:16;1.63;;;0.80;;
12980;SDS011;6555;50.468;8.480;2022-10-16T15:23:21;0.80;;;0.73;;
12980;SDS011;6555;50.468;8.480;2022-10-16T15:28:29;0.50;;;0.50;;
12980;SDS011;6555;50.468;8.480;2022-10-16T15:33:34;0.98;;;0.90;;
12980;SDS011;6555;50.468;8.480;2022-10-16T15:38:40;0.50;;;0.50;;
12980;SDS011;6555;50.468;8.480;2022-10-16T15:43:43;0.70;;;0.70;;
12980;SDS011;6555;50.468;8.480;2022-10-16T15:48:48;0.60;;;0.60;;
12980;SDS011;6555;50.468;8.480;2022-10-16T15:53:52;1.23;;;0.70;;
12980;SDS011;6555;50.468;8.480;2022-10-16T15:58:55;0.70;;;0.70;;
12980;SDS011;6555;50.468;8.480;2022-10-16T16:04:00;1.02;;;0.80;;
12980;SDS011;6555;50.468;8.480;2022-10-16T16:09:23;0.80;;;0.80;;
12980;SDS011;6555;50.468;8.480;2022-10-16T16:14:27;2.10;;;0.88;;
12980;SDS011;6555;50.468;8.480;2022-10-16T16:19:32;1.15;;;0.60;;
12980;SDS011;6555;50.468;8.480;2022-10-16T16:24:36;0.75;;;0.65;;
12980;SDS011;6555;50.468;8.480;2022-10-16T16:29:39;0.55;;;0.55;;
12980;SDS011;6555;50.468;8.480;2022-10-16T16:34:43;0.60;;;0.60;;
12980;SDS011;6555;50.468;8.480;2022-10-16T16:39:46;2.58;;;1.00;;
12980;SDS011;6555;50.468;8.480;2022-10-16T16:44:49;0.95;;;0.80;;
12980;SDS011;6555;50.468;8.480;2022-10-16T16:49:56;1.95;;;1.10;;
12980;SDS011;6555;50.468;8.480;2022-10-16T16:54:59;1.83;;;1.10;;
12980;SDS011;6555;50.468;8.480;2022-10-16T17:00:03;1.30;;;1.20;;
12980;SDS011;6555;50.468;8.480;2022-10-16T17:05:09;2.22;;;1.00;;
12980;SDS011;6555;50.468;8.480;2022-10-16T17:10:12;3.38;;;1.20;;
12980;SDS011;6555;50.468;8.480;2022-10-16T17:15:15;2.65;;;1.40;;
12980;SDS011;6555;50.468;8.480;2022-10-16T17:20:19;2.85;;;1.65;;
12980;SDS011;6555;50.468;8.480;2022-10-16T17:25:22;1.20;;;1.10;;
12980;SDS011;6555;50.468;8.480;2022-10-16T17:30:25;1.33;;;0.93;;
12980;SDS011;6555;50.468;8.480;2022-10-16T17:35:35;1.50;;;1.02;;
12980;SDS011;6555;50.468;8.480;2022-10-16T17:40:38;1.10;;;1.00;;
12980;SDS011;6555;50.468;8.480;2022-10-16T17:45:42;1.05;;;0.98;;
12980;SDS011;6555;50.468;8.480;2022-10-16T17:50:46;2.13;;;1.38;;
12980;SDS011;6555;50.468;8.480;2022-10-16T17:55:49;1.10;;;1.00;;
12980;SDS011;6555;50.468;8.480;2022-10-16T18:00:57;1.05;;;0.90;;
12980;SDS011;6555;50.468;8.480;2022-10-16T18:06:01;0.90;;;0.85;;
12980;SDS011;6555;50.468;8.480;2022-10-16T18:11:05;0.80;;;0.80;;
12980;SDS011;6555;50.468;8.480;2022-10-16T18:16:11;1.02;;;1.00;;
12980;SDS011;6555;50.468;8.480;2022-10-16T18:21:17;1.00;;;0.90;;
12980;SDS011;6555;50.468;8.480;2022-10-16T18:26:21;2.90;;;0.80;;
12980;SDS011;6555;50.468;8.480;2022-10-16T18:31:25;1.00;;;1.00;;
12980;SDS011;6555;50.468;8.480;2022-10-16T18:36:31;0.90;;;0.90;;
12980;SDS011;6555;50.468;8.480;2022-10-16T18:41:36;1.67;;;0.70;;
12980;SDS011;6555;50.468;8.480;2022-10-16T18:46:40;0.90;;;0.90;;
12980;SDS011;6555;50.468;8.480;2022-10-16T18:51:44;2.10;;;1.00;;
12980;SDS011;6555;50.468;8.480;2022-10-16T18:56:50;1.20;;;0.80;;
12980;SDS011;6555;50.468;8.480;2022-10-16T19:01:53;5.53;;;1.20;;
12980;SDS011;6555;50.468;8.480;2022-10-16T19:06:57;1.00;;;1.00;;
12980;SDS011;6555;50.468;8.480;2022-10-16T19:12:00;1.20;;;1.10;;
12980;SDS011;6555;50.468;8.480;2022-10-16T19:17:03;1.00;;;0.90;;
12980;SDS011;6555;50.468;8.480;2022-10-16T19:22:08;3.27;;;0.97;;
12980;SDS011;6555;50.468;8.480;2022-10-16T19:27:28;1.07;;;1.07;;
12980;SDS011;6555;50.468;8.480;2022-10-16T19:32:31;1.17;;;0.70;;
12980;SDS011;6555;50.468;8.480;2022-10-16T19:37:35;1.77;;;0.90;;
12980;SDS011;6555;50.468;8.480;2022-10-16T19:42:38;0.93;;;0.87;;
12980;SDS011;6555;50.468;8.480;2022-10-16T19:47:45;0.90;;;0.90;;
12980;SDS011;6555;50.468;8.480;2022-10-16T19:52:49;1.47;;;1.37;;
12980;SDS011;6555;50.468;8.480;2022-10-16T19:57:52;2.10;;;1.63;;
12980;SDS011;6555;50.468;8.480;2022-10-16T20:02:55;1.60;;;1.27;;
12980;SDS011;6555;50.468;8.480;2022-10-16T20:08:00;1.00;;;1.00;;
12980;SDS011;6555;50.468;8.480;2022-10-16T20:13:02;1.20;;;1.10;;
12980;SDS011;6555;50.468;8.480;2022-10-16T20:18:06;1.03;;;1.00;;
12980;SDS011;6555;50.468;8.480;2022-10-16T20:23:10;1.03;;;0.97;;
12980;SDS011;6555;50.468;8.480;2022-10-16T20:28:14;0.90;;;0.90;;
12980;SDS011;6555;50.468;8.480;2022-10-16T20:33:18;1.07;;;1.03;;
12980;SDS011;6555;50.468;8.480;2022-10-16T20:38:22;1.05;;;1.05;;
12980;SDS011;6555;50.468;8.480;2022-10-16T20:43:26;1.33;;;1.23;;
12980;SDS011;6555;50.468;8.480;2022-10-16T20:48:29;2.90;;;1.27;;
12980;SDS011;6555;50.468;8.480;2022-10-16T20:53:34;1.03;;;1.03;;
12980;SDS011;6555;50.468;8.480;2022-10-16T20:58:39;2.87;;;1.33;;
12980;SDS011;6555;50.468;8.480;2022-10-16T21:03:43;2.47;;;1.10;;
12980;SDS011;6555;50.468;8.480;2022-10-16T21:08:52;2.77;;;1.40;;
12980;SDS011;6555;50.468;8.480;2022-10-16T21:13:56;0.93;;;0.93;;
12980;SDS011;6555;50.468;8.480;2022-10-16T21:19:00;3.33;;;1.20;;
12980;SDS011;6555;50.468;8.480;2022-10-16T21:24:05;1.20;;;1.10;;
12980;SDS011;6555;50.468;8.480;2022-10-16T21:29:15;1.67;;;1.10;;
12980;SDS011;6555;50.468;8.480;2022-10-16T21:34:18;1.20;;;1.10;;
12980;SDS011;6555;50.468;8.480;2022-10-16T21:39:22;0.90;;;0.90;;
12980;SDS011;6555;50.468;8.480;2022-10-16T21:44:26;2.13;;;1.20;;
12980;SDS011;6555;50.468;8.480;2022-10-16T21:49:29;2.47;;;1.10;;
12980;SDS011;6555;50.468;8.480;2022-10-16T21:54:33;0.80;;;0.80;;
12980;SDS011;6555;50.468;8.480;2022-10-16T21:59:36;0.93;;;0.90;;
12980;SDS011;6555;50.468;8.480;2022-10-16T22:04:39;1.03;;;0.93;;
12980;SDS011;6555;50.468;8.480;2022-10-16T22:09:43;2.10;;;1.50;;
12980;SDS011;6555;50.468;8.480;2022-10-16T22:14:47;1.40;;;1.30;;
12980;SDS011;6555;50.468;8.480;2022-10-16T22:19:50;1.10;;;1.00;;
12980;SDS011;6555;50.468;8.480;2022-10-16T22:24:54;1.50;;;1.00;;
12980;SDS011;6555;50.468;8.480;2022-10-16T22:29:57;0.80;;;0.80;;
12980;SDS011;6555;50.468;8.480;2022-10-16T22:35:00;1.43;;;0.93;;
12980;SDS011;6555;50.468;8.480;2022-10-16T22:40:05;1.20;;;0.97;;
12980;SDS011;6555;50.468;8.480;2022-10-16T22:45:09;0.77;;;0.77;;
12980;SDS011;6555;50.468;8.480;2022-10-16T22:50:12;0.73;;;0.73;;
12980;SDS011;6555;50.468;8.480;2022-10-16T22:55:17;0.97;;;0.93;;
12980;SDS011;6555;50.468;8.480;2022-10-16T23:00:21;0.80;;;0.80;;
12980;SDS011;6555;50.468;8.480;2022-10-16T23:05:24;0.70;;;0.70;;
12980;SDS011;6555;50.468;8.480;2022-10-16T23:10:29;0.63;;;0.63;;
12980;SDS011;6555;50.468;8.480;2022-10-16T23:15:32;0.80;;;0.80;;
12980;SDS011;6555;50.468;8.480;2022-10-16T23:20:37;0.90;;;0.90;;
12980;SDS011;6555;50.468;8.480;2022-10-16T23:25:45;3.53;;;1.00;;
12980;SDS011;6555;50.468;8.480;2022-10-16T23:30:48;1.07;;;1.00;;
12980;SDS011;6555;50.468;8.480;2022-10-16T23:35:51;1.00;;;1.00;;
12980;SDS011;6555;50.468;8.480;2022-10-16T23:40:55;1.80;;;0.70;;
12980;SDS011;6555;50.468;8.480;2022-10-16T23:45:58;0.80;;;0.80;;
12980;SDS011;6555;50.468;8.480;2022-10-16T23:51:02;0.80;;;0.80;;
12980;SDS011;6555;50.468;8.480;2022-10-16T23:56:07;0.80;;;0.80;;
